Time;durP1;ratioP1;P1;durP2;ratioP2;P2;SDS_P1;SDS_P2;PMS_P1;PMS_P2;Temp;Humidity;BMP_temperature;BMP_pressure;BME280_temperature;BME280_humidity;BME280_pressure;Samples;Min_cycle;Max_cycle;Signal;HPM_P1;HPM_P2
2022/06/02 00:01:07;;;;;;;;;;;;;;;23.61;59.83;99309.63;2042176;28;19906;-47
2022/06/02 00:02:13;;;;;;;;;;;;;;;23.61;59.31;99306.84;2018268;29;19961;-49
2022/06/02 00:03:13;;;;;;;;;;;;;;;23.60;59.13;99308.84;2043141;28;19914;-49
2022/06/02 00:04:49;;;;;;;;;;;;;;;23.61;58.93;99309.63;2044904;28;19996;-47
2022/06/02 00:05:55;;;;;;;;;;;;;;;23.61;58.95;99312.38;2034801;28;19918;-47
2022/06/02 00:06:55;;;;;;;;;;;;;;;23.61;59.20;99302.09;2035691;29;20335;-48
2022/06/02 00:07:56;;;;;;;;;;;;;;;23.60;59.48;99302.53;2037012;28;19922;-49
2022/06/02 00:09:16;;;;;;;;;;;;;;;23.60;59.50;99300.56;2045325;28;19906;-48
2022/06/02 00:10:35;;;;;;;;;;;;;;;23.61;59.63;99301.31;2043418;28;20019;-48
2022/06/02 00:11:36;;;;;;;;;;;;;;;23.60;59.53;99302.53;2044404;28;20206;-49
2022/06/02 00:12:47;;;;;;;;;;;;;;;23.60;59.61;99308.06;2044748;28;19914;-49
2022/06/02 00:14:03;;;;;;;;;;;;;;;23.58;59.63;99303.78;2043876;28;20439;-48
2022/06/02 00:15:14;;;;;;;;;;;;;;;23.58;59.49;99307.78;2041055;28;19914;-48
2022/06/02 00:16:17;;;;;;;;;;;;;;;23.57;59.32;99304.25;2044048;28;19912;-47
2022/06/02 00:17:35;;;;;;;;;;;;;;;23.56;59.41;99306.25;2044278;28;19936;-49
2022/06/02 00:18:49;;;;;;;;;;;;;;;23.56;59.22;99317.31;2044025;28;20040;-49
2022/06/02 00:19:52;;;;;;;;;;;;;;;23.56;59.19;99306.25;2043995;28;20256;-49
2022/06/02 00:21:04;;;;;;;;;;;;;;;23.56;59.25;99313.75;2040152;28;19921;-47
2022/06/02 00:22:27;;;;;;;;;;;;;;;23.56;59.27;99328.34;2041094;28;19962;-50
2022/06/02 00:23:40;;;;;;;;;;;;;;;23.56;59.27;99325.59;2042635;28;20292;-49
2022/06/02 00:24:49;;;;;;;;;;;;;;;23.55;59.29;99335.09;2037290;28;20364;-48
2022/06/02 00:25:59;;;;;;;;;;;;;;;23.56;59.68;99338.66;2043457;28;19985;-47
2022/06/02 00:27:07;;;;;;;;;;;;;;;23.55;59.03;99342.63;2040550;28;20160;-47
2022/06/02 00:28:19;;;;;;;;;;;;;;;23.54;59.13;99347.38;2043750;28;19925;-47
2022/06/02 00:29:36;;;;;;;;;;;;;;;23.55;59.26;99342.63;2045398;28;19925;-48
2022/06/02 00:30:55;;;;;;;;;;;;;;;23.55;59.14;99345.41;2040090;28;19942;-48
2022/06/02 00:31:58;;;;;;;;;;;;;;;23.54;59.62;99346.63;2042823;28;19914;-46
2022/06/02 00:33:04;;;;;;;;;;;;;;;23.54;59.25;99347.38;2044923;28;19992;-48
2022/06/02 00:34:14;;;;;;;;;;;;;;;23.54;59.23;99354.91;2043621;28;20031;-49
2022/06/02 00:35:14;;;;;;;;;;;;;;;23.54;59.79;99354.91;2042491;28;20383;-48
2022/06/02 00:36:19;;;;;;;;;;;;;;;23.54;59.85;99352.16;2043908;28;19970;-48
2022/06/02 00:37:25;;;;;;;;;;;;;;;23.54;59.50;99361.22;2042996;28;19918;-47
2022/06/02 00:38:28;;;;;;;;;;;;;;;23.54;59.43;99363.19;2042853;28;19962;-50
2022/06/02 00:39:30;;;;;;;;;;;;;;;23.53;59.53;99362.44;2042826;28;20128;-49
2022/06/02 00:40:32;;;;;;;;;;;;;;;23.53;59.37;99369.94;2045788;28;19939;-47
2022/06/02 00:41:35;;;;;;;;;;;;;;;23.52;59.28;99360.91;2044395;28;19914;-48
2022/06/02 00:42:39;;;;;;;;;;;;;;;23.51;59.06;99373.19;2044958;28;20342;-49
2022/06/02 00:43:51;;;;;;;;;;;;;;;23.51;59.25;99375.97;2043287;28;20164;-48
2022/06/02 00:44:59;;;;;;;;;;;;;;;23.52;59.11;99374.75;2043999;28;20024;-46
2022/06/02 00:46:09;;;;;;;;;;;;;;;23.53;59.39;99381.00;2052517;28;19913;-47
2022/06/02 00:47:29;;;;;;;;;;;;;;;23.51;59.10;99373.19;2051166;28;20418;-49
2022/06/02 00:48:59;;;;;;;;;;;;;;;23.52;59.06;99383.03;2047885;28;19933;-48
2022/06/02 00:50:00;;;;;;;;;;;;;;;23.52;59.10;99382.25;2045329;28;19913;-48
2022/06/02 00:51:14;;;;;;;;;;;;;;;23.51;59.30;99384.25;2050653;28;19909;-47
2022/06/02 00:52:21;;;;;;;;;;;;;;;23.52;59.31;99379.50;2045973;28;19941;-48
2022/06/02 00:53:40;;;;;;;;;;;;;;;23.52;59.39;99385.03;2043983;28;19921;-48
2022/06/02 00:57:57;;;;;;;;;;;;;;;23.52;60.28;99385.03;2044047;28;20557;-48
2022/06/02 00:59:23;;;;;;;;;;;;;;;23.51;60.38;99375.19;2045316;28;19914;-48
2022/06/02 01:00:29;;;;;;;;;;;;;;;23.50;60.40;99374.41;2044706;28;19910;-49
2022/06/02 01:01:31;;;;;;;;;;;;;;;23.49;60.39;99364.59;2043252;28;20519;-48
2022/06/02 01:02:37;;;;;;;;;;;;;;;23.49;60.50;99372.88;2044326;28;20129;-48
2022/06/02 01:03:41;;;;;;;;;;;;;;;23.49;60.60;99369.34;2044229;28;19960;-47
2022/06/02 01:04:43;;;;;;;;;;;;;;;23.48;60.50;99365.81;2042514;28;19914;-47
2022/06/02 01:06:02;;;;;;;;;;;;;;;23.49;59.94;99366.59;2045477;28;20160;-47
2022/06/02 01:07:02;;;;;;;;;;;;;;;23.49;59.60;99369.34;2044775;28;20751;-49
2022/06/02 01:08:05;;;;;;;;;;;;;;;23.49;59.66;99372.09;2042454;28;19918;-47
2022/06/02 01:09:13;;;;;;;;;;;;;;;23.49;59.69;99366.59;2044867;28;19947;-47
2022/06/02 01:10:19;;;;;;;;;;;;;;;23.49;59.83;99367.34;2044129;28;19925;-47
2022/06/02 01:11:20;;;;;;;;;;;;;;;23.48;59.98;99363.03;2042652;28;19992;-48
2022/06/02 01:12:39;;;;;;;;;;;;;;;23.48;60.13;99354.75;2044214;28;20300;-50
2022/06/02 01:14:00;;;;;;;;;;;;;;;23.48;60.21;99356.75;2037264;28;19914;-47
2022/06/02 01:15:06;;;;;;;;;;;;;;;23.47;60.39;99356.00;2042281;28;19924;-50
2022/06/02 01:16:27;;;;;;;;;;;;;;;23.47;60.53;99353.25;2041997;28;19917;-47
2022/06/02 01:17:27;;;;;;;;;;;;;;;23.47;60.41;99353.25;2040596;28;20304;-47
2022/06/02 01:18:27;;;;;;;;;;;;;;;23.47;59.98;99346.94;2040602;28;19906;-47
2022/06/02 01:19:28;;;;;;;;;;;;;;;23.47;59.59;99347.72;2046086;28;20029;-47
2022/06/02 01:20:48;;;;;;;;;;;;;;;23.48;59.82;99349.22;2041984;28;19905;-47
2022/06/02 01:21:51;;;;;;;;;;;;;;;23.47;60.03;99347.72;2041317;28;19925;-49
2022/06/02 01:23:11;;;;;;;;;;;;;;;23.47;59.90;99347.72;2044032;28;20228;-50
2022/06/02 01:24:12;;;;;;;;;;;;;;;23.46;59.92;99348.94;2044244;28;19918;-50
2022/06/02 01:25:30;;;;;;;;;;;;;;;23.48;59.85;99351.22;2044393;28;20504;-47
2022/06/02 01:26:31;;;;;;;;;;;;;;;23.47;59.89;99347.72;2038436;28;19954;-48
2022/06/02 01:27:50;;;;;;;;;;;;;;;23.46;59.84;99351.69;2043120;28;19953;-51
2022/06/02 01:29:18;;;;;;;;;;;;;;;23.46;59.84;99348.94;2042604;28;19920;-47
2022/06/02 01:30:34;;;;;;;;;;;;;;;23.46;59.56;99351.69;2041701;28;19917;-48
2022/06/02 01:31:43;;;;;;;;;;;;;;;23.45;60.04;99347.41;2043409;28;20427;-47
2022/06/02 01:32:50;;;;;;;;;;;;;;;23.44;60.23;99348.59;2047149;28;19953;-46
2022/06/02 01:34:01;;;;;;;;;;;;;;;23.45;59.97;99347.41;2044502;28;19936;-49
2022/06/02 01:35:20;;;;;;;;;;;;;;;23.45;59.66;99350.16;2043558;28;19962;-47
2022/06/02 01:36:25;;;;;;;;;;;;;;;23.44;59.58;99342.28;2044356;28;19914;-48
2022/06/02 01:37:32;;;;;;;;;;;;;;;23.44;59.44;99348.59;2044148;28;19914;-47
2022/06/02 01:38:35;;;;;;;;;;;;;;;23.44;59.56;99348.59;2043229;28;19945;-48
2022/06/02 01:39:44;;;;;;;;;;;;;;;23.44;59.75;99347.81;2043888;28;19917;-49
2022/06/02 01:40:44;;;;;;;;;;;;;;;23.43;59.80;99341.53;2041069;28;19965;-47
2022/06/02 01:41:47;;;;;;;;;;;;;;;23.44;60.07;99342.28;2040996;28;19976;-49
2022/06/02 01:43:05;;;;;;;;;;;;;;;23.43;60.30;99341.53;2042311;28;19910;-48
2022/06/02 01:44:11;;;;;;;;;;;;;;;23.42;60.25;99342.75;2041959;28;19914;-47
2022/06/02 01:45:17;;;;;;;;;;;;;;;23.43;60.41;99340.75;2050489;28;20263;-48
2022/06/02 01:46:20;;;;;;;;;;;;;;;23.43;60.40;99347.03;2049269;28;19964;-47
2022/06/02 01:47:30;;;;;;;;;;;;;;;23.42;60.34;99351.03;2044481;28;19957;-50
2022/06/02 01:48:49;;;;;;;;;;;;;;;23.42;59.92;99353.06;2050302;28;19914;-50
2022/06/02 01:49:55;;;;;;;;;;;;;;;23.41;59.90;99349.53;2048844;28;19914;-47
2022/06/02 01:50:55;;;;;;;;;;;;;;;23.41;59.82;99355.06;2044534;28;20338;-47
2022/06/02 01:51:59;;;;;;;;;;;;;;;23.41;59.87;99357.81;2042714;28;20194;-48
2022/06/02 01:53:09;;;;;;;;;;;;;;;23.41;59.79;99357.03;2043503;28;20312;-48
2022/06/02 01:54:09;;;;;;;;;;;;;;;23.40;59.80;99347.22;2036859;29;20789;-48
2022/06/02 01:55:19;;;;;;;;;;;;;;;23.39;59.98;99351.97;2049361;28;19976;-49
2022/06/02 01:56:31;;;;;;;;;;;;;;;23.39;59.72;99343.69;2047730;28;19918;-47
2022/06/02 01:57:50;;;;;;;;;;;;;;;23.38;59.71;99350.44;2043162;28;19921;-47
2022/06/02 01:59:09;;;;;;;;;;;;;;;23.38;59.69;99346.88;2045221;28;19922;-49
2022/06/02 02:00:09;;;;;;;;;;;;;;;23.38;59.78;99344.13;2044192;28;19922;-48
2022/06/02 02:01:10;;;;;;;;;;;;;;;23.39;59.75;99356.72;2045895;28;20234;-47
2022/06/02 02:02:25;;;;;;;;;;;;;;;23.38;59.60;99353.19;2045853;28;20060;-50
2022/06/02 02:03:30;;;;;;;;;;;;;;;23.38;59.57;99353.19;2044691;28;19915;-46
2022/06/02 02:04:35;;;;;;;;;;;;;;;23.38;59.44;99355.19;2041561;28;19945;-48
2022/06/02 02:05:54;;;;;;;;;;;;;;;23.38;59.51;99361.47;2044544;28;20040;-48
2022/06/02 02:07:04;;;;;;;;;;;;;;;23.37;59.51;99359.94;2042811;28;20438;-48
2022/06/02 02:08:07;;;;;;;;;;;;;;;23.38;59.40;99363.47;2044056;28;19993;-46
2022/06/02 02:09:17;;;;;;;;;;;;;;;23.36;59.38;99357.66;2044859;28;19918;-50
2022/06/02 02:10:36;;;;;;;;;;;;;;;23.37;59.52;99365.47;2045293;28;19914;-48
2022/06/02 02:11:36;;;;;;;;;;;;;;;23.36;59.68;99371.47;2044077;28;19933;-47
2022/06/02 02:12:55;;;;;;;;;;;;;;;23.35;59.71;99372.69;2044172;28;19918;-46
2022/06/02 02:14:10;;;;;;;;;;;;;;;23.35;59.61;99362.41;2045787;28;20667;-46
2022/06/02 02:15:20;;;;;;;;;;;;;;;23.35;59.52;99373.47;2045405;28;20024;-51
2022/06/02 02:16:28;;;;;;;;;;;;;;;23.35;59.86;99372.69;2047747;28;19918;-48
2022/06/02 02:17:52;;;;;;;;;;;;;;;23.34;59.77;99365.63;2042917;28;19987;-48
2022/06/02 02:19:04;;;;;;;;;;;;;;;23.34;60.03;99369.16;2044608;28;19992;-47
2022/06/02 02:20:08;;;;;;;;;;;;;;;23.34;60.03;99363.63;2045321;28;19957;-46
2022/06/02 02:21:18;;;;;;;;;;;;;;;23.35;60.11;99375.44;2045353;28;19918;-47
2022/06/02 02:22:27;;;;;;;;;;;;;;;23.34;60.17;99371.16;2046054;28;19932;-49
2022/06/02 02:23:41;;;;;;;;;;;;;;;23.34;60.33;99376.69;2044551;28;19941;-47
2022/06/02 02:24:45;;;;;;;;;;;;;;;23.33;60.32;99381.44;2044259;28;20150;-49
2022/06/02 02:26:18;;;;;;;;;;;;;;;23.34;60.59;99380.22;2043930;28;19919;-49
2022/06/02 02:29:09;;;;;;;;;;;;;;;23.31;60.27;99383.91;2044063;28;20289;-46
2022/06/02 02:30:11;;;;;;;;;;;;;;;23.32;60.51;99379.88;2040257;28;19922;-47
2022/06/02 02:31:15;;;;;;;;;;;;;;;23.31;60.69;99386.66;2045607;28;19910;-47
2022/06/02 02:32:19;;;;;;;;;;;;;;;23.32;60.93;99392.97;2045249;28;19953;-46
2022/06/02 02:33:29;;;;;;;;;;;;;;;23.30;61.03;99387.88;2044594;28;19976;-48
2022/06/02 02:34:29;;;;;;;;;;;;;;;23.31;60.80;99394.94;2045643;28;19961;-49
2022/06/02 02:35:45;;;;;;;7.20;3.30;;;;;;;23.30;60.55;99382.34;2045325;28;19937;-48
2022/06/02 02:37:04;;;;;;;;;;;;;;;23.29;60.53;99380.81;2044456;28;20101;-48
2022/06/02 02:38:07;;;;;;;;;;;;;;;23.30;60.51;99378.81;2043054;28;19906;-49
2022/06/02 02:39:23;;;;;;;;;;;;;;;23.30;60.62;99376.84;2044251;28;20288;-49
2022/06/02 02:40:29;;;;;;;;;;;;;;;23.30;60.72;99376.84;2045622;28;19918;-47
2022/06/02 02:41:41;;;;;;;;;;;;;;;23.30;60.81;99370.53;2046347;28;19925;-46
2022/06/02 02:42:51;;;;;;;;;;;;;;;23.28;60.93;99373.75;2044572;28;19980;-47
2022/06/02 02:43:58;;;;;;;;;;;;;;;23.28;61.01;99376.50;2044119;28;20415;-48
2022/06/02 02:45:08;;;;;;;;;;;;;;;23.28;61.07;99382.03;2046225;28;19921;-48
2022/06/02 02:46:17;;;;;;;;;;;;;;;23.28;61.08;99384.81;2038582;28;19921;-47
2022/06/02 02:47:20;;;;;;;;;;;;;;;23.28;60.97;99389.56;2040469;28;19944;-48
2022/06/02 02:48:37;;;;;;;;;;;;;;;23.27;61.21;99391.53;2045199;28;20007;-47
2022/06/02 02:49:47;;;;;;;;;;;;;;;23.28;61.36;99395.06;2042747;28;19925;-46
2022/06/02 02:50:54;;;;;;;;;;;;;;;23.26;61.03;99392.78;2042881;28;19973;-47
2022/06/02 02:52:05;;;;;;;;;;;;;;;23.27;60.66;99405.34;2051205;28;20445;-49
2022/06/02 02:53:16;;;;;;;;;;;;;;;23.27;60.65;99404.59;2052511;28;19918;-47
2022/06/02 02:54:33;;;;;;;;;;;;;;;23.27;60.61;99399.06;2045773;28;19906;-48
2022/06/02 02:55:39;;;;;;;;;;;;;;;23.26;60.95;99395.56;2045793;28;19914;-47
2022/06/02 02:56:46;;;;;;;;;;;;;;;23.25;61.01;99399.53;2045243;28;19925;-51
2022/06/02 02:57:52;;;;;;;;;;;;;;;23.26;60.96;99403.84;2044030;28;19964;-47
2022/06/02 02:58:58;;;;;;;;;;;;;;;23.26;61.17;99398.31;2052136;28;19944;-47
2022/06/02 03:00:08;;;;;;;;;;;;;;;23.26;61.42;99409.38;2051461;28;20012;-47
2022/06/02 03:01:28;;;;;;;;;;;;;;;23.25;61.32;99398.78;2045983;28;19918;-51
2022/06/02 03:02:32;;;;;;;;;;;;;;;23.25;60.90;99407.06;2040761;28;19941;-49
2022/06/02 03:03:39;;;;;;;;;;;;;;;23.25;60.93;99418.13;2044600;28;19910;-47
2022/06/02 03:04:42;;;;;;;;;;;;;;;23.24;61.20;99414.56;2044692;28;20630;-47
2022/06/02 03:06:05;;;;;;;;;;;;;;;23.24;61.28;99406.28;2045007;28;19906;-48
2022/06/02 03:07:05;;;;;;;;;;;;;;;23.24;61.35;99414.56;2046782;28;19922;-48
2022/06/02 03:08:12;;;;;;;;;;;;;;;23.25;61.52;99413.34;2043344;28;20417;-49
2022/06/02 03:09:22;;;;;;;;;;;;;;;23.24;61.74;99405.50;2044810;28;19914;-49
2022/06/02 03:10:43;;;;;;;;;;;;;;;23.24;61.77;99398.00;2041779;28;20060;-47
2022/06/02 03:11:53;;;;;;;;;;;;;;;23.22;61.94;99392.16;2051201;28;19914;-49
2022/06/02 03:13:02;;;;;;;;;;;;;;;23.23;62.05;99390.94;2043548;28;19926;-47
2022/06/02 03:14:21;;;;;;;;;;;;;;;23.23;62.11;99390.16;2041027;28;19917;-47
2022/06/02 03:15:30;;;;;;;;;;;;;;;23.23;62.41;99392.91;2053201;28;19921;-48
2022/06/02 03:16:32;;;;;;;;;;;;;;;23.23;62.10;99381.88;2049904;28;19960;-50
2022/06/02 03:17:38;;;;;;;;;;;;;;;23.22;62.08;99389.38;2039571;28;19914;-48
2022/06/02 03:18:51;;;;;;;;;;;;;;;23.22;62.16;99383.09;2046230;28;20475;-50
2022/06/02 03:20:05;;;;;;;;;;;;;;;23.22;62.08;99385.84;2044288;28;19920;-49
2022/06/02 03:21:16;;;;;;;;;;;;;;;23.22;62.04;99377.56;2043455;28;20130;-46
2022/06/02 03:22:26;;;;;;;;;;;;;;;23.20;61.58;99380.81;2046078;28;19913;-46
2022/06/02 03:23:26;;;;;;;;;;;;;;;23.21;61.53;99387.09;2045258;28;20276;-50
2022/06/02 03:24:52;;;;;;;;;;;;;;;23.21;62.55;99376.06;2043077;28;19914;-47
2022/06/02 03:26:18;;;;;;;;;;;;;;;23.20;62.20;99378.06;2043297;28;20010;-48
2022/06/02 03:27:24;;;;;;;;;;;;;;;23.19;61.48;99381.25;2009188;28;19912;-50
2022/06/02 03:28:33;;;;;;;;;;;;;;;23.18;62.16;99380.50;2045106;28;20065;-48
2022/06/02 03:29:49;;;;;;;;;;;;;;;23.17;61.24;99385.25;2051809;28;19918;-48
2022/06/02 03:30:59;;;;;;;;;;;;;;;23.17;61.30;99395.53;2050005;28;20395;-48
2022/06/02 03:32:14;;;;;;;;;;;;;;;23.17;61.58;99401.81;2045992;28;19914;-47
2022/06/02 03:33:14;;;;;;;;;;;;;;;23.17;62.26;99392.75;2043402;28;20299;-49
2022/06/02 03:34:21;;;;;;;;;;;;;;;23.17;61.99;99396.28;2043014;28;19960;-48
2022/06/02 03:35:24;;;;;;;;;;;;;;;23.17;62.79;99403.81;2045866;28;19914;-48
2022/06/02 03:36:30;;;;;;;;;;;;;;;23.16;62.53;99411.31;2042360;28;19914;-50
2022/06/02 03:37:44;;;;;;;;;;;;;;;23.17;62.18;99412.09;2042990;28;20292;-49
2022/06/02 03:38:52;;;;;;;;;;;;;;;23.16;62.99;99421.59;2042158;28;19914;-46
2022/06/02 03:39:56;;;;;;;;;;;;;;;23.15;63.23;99431.91;2044780;28;20219;-50
2022/06/02 03:41:15;;;;;;;;;;;;;;;23.15;62.47;99442.19;2043929;28;19914;-48
2022/06/02 03:42:28;;;;;;;;;;;;;;;23.14;62.84;99457.22;2046045;28;19991;-48
2022/06/02 03:43:34;;;;;;;;;;;;;;;23.13;62.03;99483.28;2045430;28;19929;-49
2022/06/02 03:44:49;;;;;;;;;;;;;;;23.12;61.15;99488.03;2044045;28;20253;-49
2022/06/02 03:45:53;;;;;;;;;;;;;;;23.13;60.80;99505.38;2044426;28;20887;-48
2022/06/02 03:47:08;;;;;;;;;;;;;;;23.13;60.79;99516.44;2044667;28;19914;-49
2022/06/02 03:48:08;;;;;;;;;;;;;;;23.14;61.27;99529.03;2044717;28;19917;-49
2022/06/02 03:49:28;;;;;;;;;;;;;;;23.12;60.99;99514.91;2044209;28;20364;-47
2022/06/02 03:50:29;;;;;;;;;;;;;;;23.11;60.77;99510.59;2051753;28;19954;-47
2022/06/02 03:51:46;;;;;;;;;;;;;;;23.11;60.91;99521.63;2051326;28;20291;-47
2022/06/02 03:52:49;;;;;;;;;;;;;;;23.10;61.03;99518.13;2042641;28;20321;-47
2022/06/02 03:53:57;;;;;;;;;;;;;;;23.10;60.83;99517.34;2044421;28;19932;-50
2022/06/02 03:55:23;;;;;;;;;;;;;;;23.09;61.08;99522.13;2044918;28;19914;-47
2022/06/02 03:56:37;;;;;;;;;;;;;;;23.08;61.37;99526.09;2043810;28;20240;-47
2022/06/02 03:57:47;;;;;;;;;;;;;;;23.08;61.01;99519.78;2042603;28;20244;-47
2022/06/02 03:58:47;;;;;;;;;;;;;;;23.07;61.52;99507.97;2044434;28;20252;-46
2022/06/02 03:59:56;;;;;;;;;;;;;;;23.07;61.16;99501.69;2042451;28;19910;-48
2022/06/02 04:01:01;;;;;;;;;;;;;;;23.07;61.41;99507.22;2044567;28;19976;-47
2022/06/02 04:02:05;;;;;;;;;;;;;;;23.07;61.74;99501.69;2045506;28;19921;-47
2022/06/02 04:03:06;;;;;;;;;;;;;;;23.07;61.44;99490.63;2044298;28;19914;-47
2022/06/02 04:04:06;;;;;;;;;;;;;;;23.07;61.79;99490.63;2044741;28;20228;-47
2022/06/02 04:05:10;;;;;;;;;;;;;;;23.07;62.00;99482.34;2044219;28;19914;-49
2022/06/02 04:06:13;;;;;;;;;;;;;;;23.07;62.23;99465.78;2043728;28;19918;-50
2022/06/02 04:07:13;;;;;;;;;;;;;;;23.07;62.69;99460.25;2045912;28;19941;-48
2022/06/02 04:08:27;;;;;;;;;;;;;;;23.06;62.67;99444.91;2043051;28;19987;-50
2022/06/02 04:09:47;;;;;;;;;;;;;;;23.05;62.65;99435.84;2044493;28;20013;-48
2022/06/02 04:11:06;;;;;;;;;;;;;;;23.05;62.55;99433.06;2044435;28;19914;-47
2022/06/02 04:13:43;;;;;;;;;;;;;;;23.05;63.42;99421.28;2043224;28;19937;-47
2022/06/02 04:15:10;;;;;;;;;;;;;;;23.05;63.38;99430.31;2043707;28;19914;-51
2022/06/02 04:16:29;;;;;;;;;;;;;;;23.05;63.52;99424.06;2040359;28;20229;-49
2022/06/02 04:17:47;;;;;;;;;;;;;;;23.05;63.69;99410.25;2038102;28;20321;-51
2022/06/02 04:18:50;;;;;;;;;;;;;;;23.05;63.69;99388.16;2045333;28;19909;-48
2022/06/02 04:21:20;;;;;;;;;;;;;;;23.03;64.33;99374.78;2042785;28;19918;-47
2022/06/02 04:22:20;;;;;;;;;;;;;;;23.02;64.28;99373.25;2044575;28;20324;-46
2022/06/02 04:23:28;;;;;;;;;;;;;;;23.02;63.93;99373.25;2045166;28;19914;-48
2022/06/02 04:24:28;;;;;;;;;;;;;;;23.03;64.23;99376.78;2044006;28;19921;-50
2022/06/02 04:25:47;;;;;;;;;;;;;;;23.02;64.21;99373.25;2043704;28;19956;-46
2022/06/02 04:27:01;;;;;;;;;;;;;;;23.02;63.78;99384.28;2046060;28;20288;-47
2022/06/02 04:28:09;;;;;;;;;;;;;;;23.02;63.83;99383.53;2048197;28;19918;-47
2022/06/02 04:29:18;;;;;;;;;;;;;;;23.02;64.08;99372.47;2042268;28;20020;-51
2022/06/02 04:30:20;;;;;;;;;;;;;;;23.01;64.56;99359.88;2045336;28;20296;-50
2022/06/02 04:31:43;;;;;;;;;;;;;;;22.99;64.21;99365.88;2043529;28;19914;-51
2022/06/02 04:32:54;;;;;;;;;;;;;;;22.98;64.33;99369.88;2043758;28;19918;-49
2022/06/02 04:34:08;;;;;;;;;;;;;;;22.99;64.90;99370.63;2038809;28;20407;-48
2022/06/02 04:35:27;;;;;;;;;;;;;;;22.99;64.23;99359.59;2045442;28;19925;-46
2022/06/02 04:36:33;;;;;;;;;;;;;;;22.98;63.90;99356.06;2052153;28;19917;-47
2022/06/02 04:37:52;;;;;;;;;;;;;;;22.98;63.58;99366.34;2050052;28;19920;-48
2022/06/02 04:39:01;;;;;;;;;;;;;;;22.98;63.59;99380.16;2041098;28;20764;-47
2022/06/02 04:40:16;;;;;;;;;;;;;;;22.98;63.87;99396.72;2044914;28;20387;-49
2022/06/02 04:41:20;;;;;;;;;;;;;;;22.98;64.18;99402.22;2044225;28;19921;-51
2022/06/02 04:42:40;;;;;;;;;;;;;;;22.97;64.38;99401.47;2045315;28;19910;-47
2022/06/02 04:43:44;;;;;;;;;;;;;;;22.98;63.05;99405.75;2028889;29;19914;-51
2022/06/02 04:45:03;;;;;;;;;;;;;;;22.98;63.55;99416.81;2039956;28;20292;-48
2022/06/02 04:46:42;;;;;;;;;;;;;;;22.98;64.83;99410.50;2042166;28;20173;-47
2022/06/02 04:47:49;;;;;;;;;;;;;;;22.97;63.53;99420.78;2010435;29;20014;-51
2022/06/02 04:49:08;;;;;;;;;;;;;;;22.99;63.56;99423.09;2005080;29;19955;-49
2022/06/02 04:50:18;;;;;;;;;;;;;;;22.98;63.47;99430.63;2007184;29;19911;-49
2022/06/02 04:51:29;;;;;;;;;;;;;;;22.99;62.87;99442.44;2011180;29;19956;-48
2022/06/02 04:52:42;;;;;;;;;;;;;;;22.97;63.32;99445.66;2010705;29;19972;-47
2022/06/02 04:53:52;;;;;;;;;;;;;;;22.98;63.58;99446.41;2032790;28;19918;-47
2022/06/02 04:54:58;;;;;;;;;;;;;;;22.96;63.46;99446.09;2044614;28;19949;-46
2022/06/02 04:56:13;;;;;;;;;;;;;;;22.95;63.37;99453.59;2042692;28;20011;-49
2022/06/02 04:57:38;;;;;;;;;;;;;;;22.95;63.95;99461.13;2041950;28;19910;-47
2022/06/02 04:58:50;;;;;;;;;;;;;;;22.95;64.73;99466.63;2040975;28;19906;-47
2022/06/02 04:59:54;;;;;;;;;;;;;;;22.94;65.02;99476.16;2042987;28;20773;-47
2022/06/02 05:01:00;;;;;;;;;;;;;;;22.93;64.30;99471.88;2043325;28;19957;-47
2022/06/02 05:02:19;;;;;;;;;;;;;;;22.93;64.48;99471.88;2044257;28;19914;-48
2022/06/02 05:03:22;;;;;;;;;;;;;;;22.93;64.67;99482.91;2044248;28;20450;-48
2022/06/02 05:04:41;;;;;;;;;;;;;;;22.93;64.74;99474.63;2043821;28;20021;-49
2022/06/02 05:06:00;;;;;;;;;;;;;;;22.92;64.46;99484.13;2042035;28;19957;-49
2022/06/02 05:07:06;;;;;;;;;;;;;;;22.93;64.83;99480.16;2042676;28;20234;-47
2022/06/02 05:08:13;;;;;;;;;;;;;;;22.93;64.87;99480.16;2043870;28;19953;-48
2022/06/02 05:09:17;;;;;;;;;;;;;;;22.93;64.90;99483.69;2042452;28;19914;-47
2022/06/02 05:10:23;;;;;;;;;;;;;;;22.93;64.85;99482.91;2046328;28;19910;-48
2022/06/02 05:11:33;;;;;;;;;;;;;;;22.92;64.62;99484.91;2050505;28;20114;-50
2022/06/02 05:12:45;;;;;;;;;;;;;;;22.92;64.70;99490.41;2047900;28;20000;-49
2022/06/02 05:14:22;;;;;;;5.70;2.92;;;;;;;22.91;65.30;99488.09;2042975;28;19922;-48
2022/06/02 05:15:44;;;;;;;6.25;2.95;;;;;;;22.91;65.08;99491.63;2043446;28;20335;-47
2022/06/02 05:16:44;;;;;;;;;;;;;;;22.92;65.23;99478.59;2044276;28;19914;-46
2022/06/02 05:17:54;;;;;;;;;;;;;;;22.91;65.36;99477.84;2043055;28;19922;-50
2022/06/02 05:19:13;;;;;;;;;;;;;;;22.91;65.19;99468.78;2041723;28;20381;-47
2022/06/02 05:20:27;;;;;;;;;;;;;;;22.90;65.21;99464.47;2050293;28;19924;-49
2022/06/02 05:21:34;;;;;;;;;;;;;;;22.90;65.12;99461.72;2040481;28;20033;-48
2022/06/02 05:22:37;;;;;;;;;;;;;;;22.90;65.28;99464.47;2042691;28;20407;-47
2022/06/02 05:23:37;;;;;;;;;;;;;;;22.89;65.72;99451.91;2042391;28;20140;-46
2022/06/02 05:24:40;;;;;;;;;;;;;;;22.89;64.97;99455.44;2043554;28;19917;-47
2022/06/02 05:26:02;;;;;;;;;;;;;;;22.88;65.18;99456.66;2042963;28;19910;-46
2022/06/02 05:27:05;;;;;;;;;;;;;;;22.88;65.75;99456.66;2042159;28;19914;-48
2022/06/02 05:28:27;;;;;;;;;;;;;;;22.88;65.63;99462.19;2042981;28;20024;-47
2022/06/02 05:29:37;;;;;;;;;;;;;;;22.88;65.96;99461.41;2040711;28;20037;-47
2022/06/02 05:30:45;;;;;;;;;;;;;;;22.89;65.73;99479.53;2042652;28;20253;-48
2022/06/02 05:31:55;;;;;;;;;;;;;;;22.89;65.76;99490.56;2043592;28;20020;-47
2022/06/02 05:32:58;;;;;;;;;;;;;;;22.89;65.99;99496.09;2041099;28;20450;-48
2022/06/02 05:34:07;;;;;;;;;;;;;;;22.89;65.63;99501.63;2041395;28;19923;-47
2022/06/02 05:35:29;;;;;;;;;;;;;;;22.88;65.90;99500.84;2043408;28;20000;-50
2022/06/02 05:36:42;;;;;;;;;;;;;;;22.88;65.68;99505.59;2042098;28;20236;-55
2022/06/02 05:37:45;;;;;;;;;;;;;;;22.87;65.79;99512.31;2043686;28;19914;-54
2022/06/02 05:38:55;;;;;;;;;;;;;;;22.86;65.51;99519.06;2042522;28;19917;-55
2022/06/02 05:40:04;;;;;;;;;;;;;;;22.85;65.29;99506.47;2043095;28;19906;-55
2022/06/02 05:41:14;;;;;;;;;;;;;;;22.84;65.65;99505.72;2043259;28;20305;-56
2022/06/02 05:42:18;;;;;;;;;;;;;;;22.84;65.74;99504.97;2042419;28;19910;-55
2022/06/02 05:43:51;;;;;;;;;;;;;;;22.82;65.47;99508.16;2043239;28;19913;-56
2022/06/02 05:44:57;;;;;;;;;;;;;;;22.82;65.91;99507.41;2026224;29;19961;-56
2022/06/02 05:46:01;;;;;;;;;;;;;;;22.81;65.50;99512.16;2038432;28;20400;-55
2022/06/02 05:47:01;;;;;;;;;;;;;;;22.81;65.31;99511.38;2044160;28;19914;-54
2022/06/02 05:48:15;;;;;;;;;;;;;;;22.82;65.17;99510.94;2042578;28;19928;-55
2022/06/02 05:49:33;;;;;;;;;;;;;;;22.80;65.49;99509.81;2042432;28;19929;-55
2022/06/02 05:51:03;;;;;;;;;;;;;;;22.81;65.68;99516.91;2042458;28;19918;-56
2022/06/02 05:52:18;;;;;;;;;;;;;;;22.82;65.68;99518.44;2031190;28;20795;-55
2022/06/02 05:53:31;;;;;;;;;;;;;;;22.81;65.82;99520.44;2032109;28;20226;-55
2022/06/02 05:54:50;;;;;;;;;;;;;;;22.82;66.10;99524.72;2040720;28;21227;-55
2022/06/02 05:55:53;;;;;;;;;;;;;;;22.82;65.57;99523.97;2042565;28;19921;-56
2022/06/02 05:57:00;;;;;;;;;;;;;;;22.82;65.47;99521.97;2037626;28;19924;-55
2022/06/02 05:58:15;;;;;;;;;;;;;;;22.82;65.99;99521.19;2041862;28;20021;-55
2022/06/02 05:59:18;;;;;;;;;;;;;;;22.82;65.76;99526.72;2044755;28;19918;-55
2022/06/02 06:00:25;;;;;;;;;;;;;;;22.80;65.76;99527.16;2043325;28;20199;-55
2022/06/02 06:01:36;;;;;;;;;;;;;;;22.80;65.84;99538.22;2043072;28;20376;-57
2022/06/02 06:02:39;;;;;;;;;;;;;;;22.79;65.68;99533.16;2040554;28;19941;-56
2022/06/02 06:03:46;;;;;;;;;;;;;;;22.77;65.65;99533.59;2045400;28;20082;-55
2022/06/02 06:05:01;;;;;;;;;;;;;;;22.74;65.59;99532.50;2043285;28;20095;-56
2022/06/02 06:06:04;;;;;;;;;;;;;;;22.74;65.43;99546.31;2037933;28;19921;-57
2022/06/02 06:07:05;;;;;;;;;;;;;;;22.74;65.90;99553.81;2044283;28;20656;-55
2022/06/02 06:08:34;;;;;;;;;;;;;;;22.74;66.17;99564.84;2042396;28;19984;-54
2022/06/02 06:09:56;;;;;;;;;;;;;;;22.74;66.18;99568.38;2034907;28;19914;-55
2022/06/02 06:11:06;;;;;;;;;;;;;;;22.77;65.93;99568.72;2040115;28;19941;-55
2022/06/02 06:12:25;;;;;;;;;;;;;;;22.77;65.83;99563.19;2043729;28;19918;-56
2022/06/02 06:13:44;;;;;;;;;;;;;;;22.78;66.00;99561.97;2027207;29;19927;-56